createdAt,value
2023-12-22T00:00:02.962Z,2.70
2023-12-22T00:02:30.388Z,2.70
2023-12-22T00:04:57.609Z,2.70
2023-12-22T00:07:25.080Z,2.90
2023-12-22T00:09:52.320Z,3.00
2023-12-22T00:12:19.553Z,2.90
2023-12-22T00:14:46.795Z,2.80
2023-12-22T00:17:14.069Z,2.80
2023-12-22T00:19:41.729Z,3.00
2023-12-22T00:22:09.081Z,3.10
2023-12-22T00:24:36.349Z,3.00
2023-12-22T00:27:04.330Z,2.90
2023-12-22T00:29:31.619Z,3.37
2023-12-22T00:31:59.032Z,3.20
2023-12-22T00:34:26.358Z,3.20
2023-12-22T00:36:53.644Z,3.00
2023-12-22T00:39:20.913Z,3.13
2023-12-22T00:41:48.123Z,3.07
2023-12-22T00:44:15.369Z,3.10
2023-12-22T00:46:42.655Z,3.00
2023-12-22T00:49:09.972Z,3.30
2023-12-22T00:51:37.223Z,3.20
2023-12-22T00:54:04.484Z,3.30
2023-12-22T00:56:31.756Z,3.20
2023-12-22T00:59:05.343Z,3.50
2023-12-22T01:01:38.817Z,3.10
2023-12-22T01:04:06.235Z,3.40
2023-12-22T01:06:33.624Z,3.20
2023-12-22T01:09:00.853Z,3.60
2023-12-22T01:11:28.096Z,3.30
2023-12-22T01:13:55.405Z,4.30
2023-12-22T01:16:24.135Z,3.20
2023-12-22T01:18:52.087Z,3.33
2023-12-22T01:21:19.500Z,3.40
2023-12-22T01:23:46.794Z,3.27
2023-12-22T01:26:14.187Z,3.40
2023-12-22T01:28:41.545Z,3.67
2023-12-22T01:31:08.844Z,3.30
2023-12-22T01:33:36.152Z,3.50
2023-12-22T01:36:04.003Z,3.97
2023-12-22T01:38:31.222Z,3.10
2023-12-22T01:40:58.570Z,5.63
2023-12-22T01:43:25.998Z,3.30
2023-12-22T01:45:58.983Z,3.50
2023-12-22T01:48:27.410Z,3.60
2023-12-22T01:50:55.086Z,3.30
2023-12-22T01:53:22.517Z,3.30
2023-12-22T01:55:51.628Z,3.30
2023-12-22T01:58:20.344Z,3.20
2023-12-22T02:00:47.858Z,3.30
2023-12-22T02:03:15.735Z,3.10
2023-12-22T02:05:43.303Z,3.40
2023-12-22T02:08:10.611Z,3.30
2023-12-22T02:10:38.309Z,3.20
2023-12-22T02:13:06.241Z,3.20
2023-12-22T02:15:34.320Z,3.43
2023-12-22T02:18:11.809Z,3.63
2023-12-22T02:20:39.698Z,3.23
2023-12-22T02:23:06.945Z,3.20
2023-12-22T02:25:34.182Z,3.10
2023-12-22T02:28:13.243Z,3.10
2023-12-22T02:31:11.293Z,3.20
2023-12-22T02:33:41.725Z,3.20
2023-12-22T02:36:10.731Z,3.20
2023-12-22T02:38:38.756Z,3.30
2023-12-22T02:41:07.040Z,3.30
2023-12-22T02:43:34.440Z,3.17
2023-12-22T02:46:01.712Z,3.10
2023-12-22T02:48:29.071Z,3.57
2023-12-22T02:50:56.464Z,3.30
2023-12-22T02:53:23.668Z,3.53
2023-12-22T02:55:50.940Z,3.40
2023-12-22T02:58:18.253Z,3.40
2023-12-22T03:00:45.616Z,3.37
2023-12-22T03:03:14.527Z,3.30
2023-12-22T03:05:41.831Z,3.30
2023-12-22T03:08:09.128Z,3.20
2023-12-22T03:10:36.448Z,3.30
2023-12-22T03:13:03.720Z,3.30
2023-12-22T03:15:30.975Z,3.63
2023-12-22T03:17:58.349Z,3.70
2023-12-22T03:20:25.651Z,3.20
2023-12-22T03:22:53.004Z,3.40
2023-12-22T03:25:20.808Z,3.67
2023-12-22T03:27:48.308Z,3.33
2023-12-22T03:30:15.730Z,3.10
2023-12-22T03:32:43.001Z,3.57
2023-12-22T03:35:10.252Z,3.60
2023-12-22T03:37:37.617Z,3.43
2023-12-22T03:40:05.020Z,3.40
2023-12-22T03:42:32.247Z,3.33
2023-12-22T03:44:59.473Z,3.67
2023-12-22T03:47:26.753Z,3.53
2023-12-22T03:49:54.106Z,3.60
2023-12-22T03:52:21.530Z,3.20
2023-12-22T03:54:48.932Z,3.20
2023-12-22T03:57:16.135Z,3.10
2023-12-22T03:59:44.726Z,3.30
2023-12-22T04:02:12.056Z,3.30
2023-12-22T04:04:39.761Z,3.27
2023-12-22T04:07:07.074Z,3.50
2023-12-22T04:09:34.440Z,3.67
2023-12-22T04:12:01.714Z,3.93
2023-12-22T04:14:28.994Z,3.40
2023-12-22T04:16:56.359Z,3.50
2023-12-22T04:19:23.805Z,3.60
2023-12-22T04:21:51.149Z,3.50
2023-12-22T04:24:18.493Z,3.93
2023-12-22T04:26:45.738Z,3.40
2023-12-22T04:29:12.978Z,3.30
2023-12-22T04:31:40.233Z,3.40
2023-12-22T04:34:07.469Z,3.50
2023-12-22T04:36:34.737Z,3.40
2023-12-22T04:39:02.014Z,3.70
2023-12-22T04:41:29.250Z,3.30
2023-12-22T04:43:56.588Z,3.40
2023-12-22T04:46:23.874Z,3.53
2023-12-22T04:48:51.274Z,3.50
2023-12-22T04:51:18.666Z,3.50
2023-12-22T04:53:46.024Z,3.70
2023-12-22T04:56:13.360Z,3.67
2023-12-22T04:58:40.747Z,3.63
2023-12-22T05:01:08.081Z,3.60
2023-12-22T05:03:35.378Z,3.40
2023-12-22T05:06:02.694Z,3.50
2023-12-22T05:08:29.969Z,3.50
2023-12-22T05:10:57.308Z,3.57
2023-12-22T05:13:24.615Z,3.67
2023-12-22T05:15:51.865Z,3.30
2023-12-22T05:18:19.287Z,3.43
2023-12-22T05:20:46.696Z,3.47
2023-12-22T05:23:14.018Z,3.40
2023-12-22T05:25:41.936Z,3.20
2023-12-22T05:28:09.261Z,3.30
2023-12-22T05:30:36.494Z,3.43
2023-12-22T05:33:03.984Z,3.40
2023-12-22T05:35:31.672Z,3.60
2023-12-22T05:37:59.045Z,3.40
2023-12-22T05:40:26.345Z,3.47
2023-12-22T05:42:53.611Z,3.80
2023-12-22T05:45:20.917Z,3.70
2023-12-22T05:47:48.626Z,3.40
2023-12-22T05:50:16.250Z,3.77
2023-12-22T05:52:44.967Z,3.70
2023-12-22T05:55:12.291Z,3.80
2023-12-22T05:57:39.549Z,3.30
2023-12-22T06:00:08.643Z,3.70
2023-12-22T06:02:36.054Z,3.40
2023-12-22T06:05:03.573Z,3.53
2023-12-22T06:07:30.928Z,3.57
2023-12-22T06:09:58.211Z,3.40
2023-12-22T06:12:25.465Z,3.70
2023-12-22T06:14:52.721Z,3.63
2023-12-22T06:17:20.164Z,3.80
2023-12-22T06:19:47.447Z,3.40
2023-12-22T06:22:14.696Z,3.93
2023-12-22T06:24:41.965Z,3.43
2023-12-22T06:27:09.189Z,3.50
2023-12-22T06:29:36.425Z,3.60
2023-12-22T06:32:04.121Z,3.40
2023-12-22T06:34:31.384Z,3.50
2023-12-22T06:36:58.711Z,3.53
2023-12-22T06:39:26.116Z,3.40
2023-12-22T06:41:53.325Z,3.40
2023-12-22T06:44:20.562Z,3.60
2023-12-22T06:46:47.937Z,3.53
2023-12-22T06:49:16.304Z,3.60
2023-12-22T06:51:43.727Z,3.50
2023-12-22T06:54:13.195Z,3.50
2023-12-22T06:56:41.573Z,3.50
2023-12-22T06:59:08.808Z,3.50
2023-12-22T07:01:37.014Z,5.00
2023-12-22T07:04:05.276Z,3.70
2023-12-22T07:06:35.128Z,3.20
2023-12-22T07:09:17.363Z,3.60
2023-12-22T07:11:52.193Z,3.43
2023-12-22T07:14:19.665Z,3.57
2023-12-22T07:16:47.128Z,3.40
2023-12-22T07:19:14.865Z,3.70
2023-12-22T07:21:44.704Z,3.58
2023-12-22T07:24:15.166Z,3.73
2023-12-22T07:26:45.581Z,3.53
2023-12-22T07:29:13.250Z,3.70
2023-12-22T07:31:40.726Z,3.50
2023-12-22T07:34:09.537Z,3.40
2023-12-22T07:36:43.584Z,3.50
2023-12-22T07:39:17.129Z,3.40
2023-12-22T07:41:45.245Z,3.27
2023-12-22T07:44:12.611Z,3.40
2023-12-22T07:46:40.643Z,3.30
2023-12-22T07:49:09.563Z,3.30
2023-12-22T07:51:36.885Z,3.50
2023-12-22T07:54:04.184Z,3.40
2023-12-22T07:56:31.441Z,3.60
2023-12-22T07:59:09.217Z,3.40
2023-12-22T08:01:45.958Z,3.10
2023-12-22T08:04:13.179Z,3.20
2023-12-22T08:06:40.669Z,3.10
2023-12-22T08:09:07.970Z,3.30
2023-12-22T08:11:35.231Z,3.20
2023-12-22T08:14:02.507Z,3.43
2023-12-22T08:16:29.883Z,6.70
2023-12-22T08:18:57.163Z,3.30
2023-12-22T08:21:33.723Z,3.63
2023-12-22T08:24:07.041Z,3.37
2023-12-22T08:26:34.349Z,3.20
2023-12-22T08:29:01.655Z,4.23
2023-12-22T08:31:29.029Z,3.30
2023-12-22T08:33:56.969Z,3.10
2023-12-22T08:36:24.271Z,3.40
2023-12-22T08:38:51.963Z,3.20
2023-12-22T08:41:19.759Z,3.10
2023-12-22T08:43:47.076Z,3.10
2023-12-22T08:46:14.774Z,3.07
2023-12-22T08:48:42.924Z,3.00
2023-12-22T08:51:10.274Z,3.03
2023-12-22T08:53:38.486Z,3.00
2023-12-22T08:56:06.928Z,2.83
2023-12-22T08:58:34.231Z,3.17
2023-12-22T09:01:01.476Z,3.30
2023-12-22T09:03:29.446Z,3.00
2023-12-22T09:05:56.706Z,3.10
2023-12-22T09:08:23.967Z,3.00
2023-12-22T09:10:51.269Z,3.23
2023-12-22T09:13:18.552Z,2.90
2023-12-22T09:15:49.474Z,3.10
2023-12-22T09:18:16.787Z,3.10
2023-12-22T09:20:44.102Z,2.80
2023-12-22T09:23:11.483Z,2.80
2023-12-22T09:25:38.840Z,2.90
2023-12-22T09:28:06.218Z,2.97
2023-12-22T09:30:33.481Z,2.70
2023-12-22T09:33:01.284Z,3.00
2023-12-22T09:35:29.050Z,2.70
2023-12-22T09:37:56.390Z,2.67
2023-12-22T09:40:23.784Z,2.70
2023-12-22T09:42:52.353Z,3.00
2023-12-22T09:45:22.039Z,2.70
2023-12-22T09:47:55.423Z,2.80
2023-12-22T09:50:23.118Z,3.00
2023-12-22T09:52:50.606Z,2.70
2023-12-22T09:55:18.707Z,2.70
2023-12-22T09:57:47.677Z,2.70
2023-12-22T10:00:16.566Z,2.80
2023-12-22T10:02:46.667Z,2.80
2023-12-22T10:05:14.425Z,2.90
2023-12-22T10:07:45.337Z,2.70
2023-12-22T10:10:13.312Z,2.70
2023-12-22T10:12:40.931Z,2.67
2023-12-22T10:15:10.054Z,2.60
2023-12-22T10:17:37.578Z,2.80
2023-12-22T10:20:05.372Z,2.80
2023-12-22T10:22:32.689Z,2.80
2023-12-22T10:25:00.113Z,2.90
2023-12-22T10:27:27.904Z,2.50
2023-12-22T10:29:58.076Z,2.70
2023-12-22T10:32:25.553Z,3.20
2023-12-22T10:34:53.925Z,3.13
2023-12-22T10:37:23.065Z,2.80
2023-12-22T10:39:54.072Z,2.97
2023-12-22T10:42:21.418Z,2.90
2023-12-22T10:44:50.356Z,3.20
2023-12-22T10:47:18.934Z,2.60
2023-12-22T10:49:47.821Z,4.57
2023-12-22T10:52:22.033Z,2.70
2023-12-22T10:54:49.874Z,2.80
2023-12-22T10:57:23.077Z,2.70
2023-12-22T10:59:57.626Z,3.10
2023-12-22T11:02:30.532Z,3.10
2023-12-22T11:04:58.180Z,2.60
2023-12-22T11:07:28.617Z,2.70
2023-12-22T11:09:57.841Z,2.80
2023-12-22T11:12:27.389Z,3.10
2023-12-22T11:14:55.011Z,2.63
2023-12-22T11:17:23.409Z,2.90
2023-12-22T11:19:54.160Z,2.60
2023-12-22T11:22:23.078Z,2.80
2023-12-22T11:24:51.374Z,2.80
2023-12-22T11:27:21.990Z,3.10
2023-12-22T11:29:50.764Z,2.90
2023-12-22T11:32:19.728Z,2.60
2023-12-22T11:34:48.041Z,2.80
2023-12-22T11:37:16.269Z,2.90
2023-12-22T11:39:44.517Z,2.70
2023-12-22T11:42:19.776Z,2.80
2023-12-22T11:44:47.125Z,2.90
2023-12-22T11:47:16.179Z,2.70
2023-12-22T11:49:43.646Z,2.80
2023-12-22T11:52:14.230Z,3.13
2023-12-22T11:54:52.667Z,3.97
2023-12-22T11:57:28.720Z,3.10
2023-12-22T11:59:59.588Z,3.10
2023-12-22T12:02:27.489Z,2.80
2023-12-22T12:04:55.274Z,3.20
2023-12-22T12:07:41.578Z,2.90
2023-12-22T12:10:10.001Z,2.90
2023-12-22T12:12:37.804Z,3.00
2023-12-22T12:15:14.498Z,3.07
2023-12-22T12:17:43.173Z,3.17
2023-12-22T12:20:13.526Z,2.80
2023-12-22T12:22:41.957Z,3.10
2023-12-22T12:25:21.700Z,3.00
2023-12-22T12:28:07.213Z,3.03
2023-12-22T12:30:35.880Z,2.97
2023-12-22T12:33:13.333Z,2.90
2023-12-22T12:35:45.306Z,3.03
2023-12-22T12:38:14.146Z,3.13
2023-12-22T12:40:44.262Z,2.87
2023-12-22T12:43:12.045Z,2.83
2023-12-22T12:45:39.321Z,2.90
2023-12-22T12:48:08.378Z,2.80
2023-12-22T12:50:37.807Z,2.90
2023-12-22T12:53:08.415Z,2.80
2023-12-22T12:55:35.771Z,3.07
2023-12-22T12:58:03.047Z,2.80
2023-12-22T13:00:37.063Z,3.10
2023-12-22T13:03:06.857Z,2.90
2023-12-22T13:05:36.877Z,2.70
2023-12-22T13:08:13.176Z,2.60
2023-12-22T13:10:42.152Z,2.73
2023-12-22T13:13:09.830Z,2.70
2023-12-22T13:15:37.168Z,2.90
2023-12-22T13:18:04.600Z,2.90
2023-12-22T13:20:32.519Z,2.60
2023-12-22T13:22:59.891Z,2.70
2023-12-22T13:25:27.379Z,2.70
2023-12-22T13:27:54.833Z,2.83
2023-12-22T13:30:33.670Z,2.60
2023-12-22T13:33:01.159Z,2.87
2023-12-22T13:35:29.736Z,2.80
2023-12-22T13:37:57.205Z,3.07
2023-12-22T13:40:24.827Z,2.60
2023-12-22T13:42:59.553Z,2.50
2023-12-22T13:45:27.427Z,2.70
2023-12-22T13:47:55.147Z,2.83
2023-12-22T13:50:26.162Z,2.80
2023-12-22T13:52:53.640Z,3.87
2023-12-22T13:55:24.205Z,2.90
2023-12-22T13:58:01.547Z,2.87
2023-12-22T14:00:32.527Z,2.80
2023-12-22T14:03:00.216Z,3.00
2023-12-22T14:05:32.638Z,2.80
2023-12-22T14:08:02.586Z,3.27
2023-12-22T14:10:30.179Z,2.70
2023-12-22T14:12:57.974Z,3.00
2023-12-22T14:15:29.231Z,2.80
2023-12-22T14:18:01.620Z,3.03
2023-12-22T14:20:28.847Z,2.87
2023-12-22T14:22:56.122Z,2.70
2023-12-22T14:25:23.421Z,2.80
2023-12-22T14:27:50.906Z,2.80
2023-12-22T14:30:18.285Z,2.80
2023-12-22T14:32:45.571Z,2.90
2023-12-22T14:35:12.930Z,2.90
2023-12-22T14:37:40.269Z,2.80
2023-12-22T14:40:07.830Z,2.80
2023-12-22T14:42:35.212Z,2.90
2023-12-22T14:45:03.448Z,2.70
2023-12-22T14:47:31.761Z,3.10
2023-12-22T14:50:05.167Z,3.73
2023-12-22T14:52:36.131Z,3.00
2023-12-22T14:55:05.353Z,2.70
2023-12-22T14:57:32.785Z,2.80
2023-12-22T15:00:00.444Z,2.90
2023-12-22T15:02:27.875Z,3.10
2023-12-22T15:04:56.722Z,3.50
2023-12-22T15:07:25.598Z,2.70
2023-12-22T15:09:53.003Z,3.00
2023-12-22T15:12:20.233Z,2.80
2023-12-22T15:14:50.571Z,2.90
2023-12-22T15:17:18.540Z,2.90
2023-12-22T15:19:45.890Z,2.73
2023-12-22T15:22:13.879Z,2.60
2023-12-22T15:24:45.089Z,3.10
2023-12-22T15:27:12.870Z,2.80
2023-12-22T15:29:40.254Z,2.50
2023-12-22T15:32:07.857Z,2.67
2023-12-22T15:34:35.222Z,2.70
2023-12-22T15:37:02.514Z,2.70
2023-12-22T15:39:31.365Z,2.80
2023-12-22T15:41:58.617Z,2.60
2023-12-22T15:44:25.928Z,2.70
2023-12-22T15:46:53.262Z,2.83
2023-12-22T15:49:20.625Z,2.60
2023-12-22T15:51:47.899Z,2.50
2023-12-22T15:54:17.341Z,2.60
2023-12-22T15:56:44.560Z,2.60
2023-12-22T15:59:12.418Z,2.40
2023-12-22T16:01:46.208Z,2.47
2023-12-22T16:04:13.584Z,2.70
2023-12-22T16:06:40.878Z,2.60
2023-12-22T16:09:08.196Z,2.70
2023-12-22T16:11:35.530Z,2.80
2023-12-22T16:14:02.835Z,2.70
2023-12-22T16:16:30.123Z,2.80
2023-12-22T16:18:57.437Z,2.80
2023-12-22T16:21:24.773Z,2.60
2023-12-22T16:23:52.019Z,2.70
2023-12-22T16:26:22.723Z,2.50
2023-12-22T16:28:50.452Z,2.87
2023-12-22T16:31:17.873Z,2.70
2023-12-22T16:33:45.403Z,2.70
2023-12-22T16:36:12.932Z,2.83
2023-12-22T16:38:40.334Z,2.50
2023-12-22T16:41:08.021Z,2.60
2023-12-22T16:43:35.859Z,2.83
2023-12-22T16:46:13.504Z,2.63
2023-12-22T16:48:40.863Z,2.60
2023-12-22T16:51:08.139Z,2.30
2023-12-22T16:53:35.531Z,2.30
2023-12-22T16:56:02.885Z,2.50
2023-12-22T16:58:30.174Z,2.43
2023-12-22T17:01:14.986Z,2.30
2023-12-22T17:03:44.957Z,2.20
2023-12-22T17:06:12.426Z,2.50
2023-12-22T17:08:40.018Z,2.50
2023-12-22T17:11:07.369Z,2.40
2023-12-22T17:13:34.713Z,2.27
2023-12-22T17:16:02.057Z,2.30
2023-12-22T17:18:30.446Z,2.50
2023-12-22T17:21:04.983Z,2.33
2023-12-22T17:23:33.166Z,2.40
2023-12-22T17:26:00.540Z,2.40
2023-12-22T17:28:28.002Z,2.43
2023-12-22T17:30:55.484Z,2.40
2023-12-22T17:33:23.573Z,2.40
2023-12-22T17:35:51.081Z,2.23
2023-12-22T17:38:18.502Z,2.27
2023-12-22T17:40:45.990Z,2.50
2023-12-22T17:43:13.330Z,2.30
2023-12-22T17:45:40.581Z,2.50
2023-12-22T17:48:08.336Z,2.40
2023-12-22T17:50:35.998Z,2.40
2023-12-22T17:53:03.351Z,2.30
2023-12-22T17:55:30.711Z,2.30
2023-12-22T17:57:57.943Z,2.30
2023-12-22T18:00:25.288Z,2.30
2023-12-22T18:02:52.517Z,2.30
2023-12-22T18:05:20.663Z,2.50
2023-12-22T18:07:48.348Z,2.50
2023-12-22T18:10:17.311Z,2.30
2023-12-22T18:12:46.317Z,2.60
2023-12-22T18:15:13.981Z,2.47
2023-12-22T18:17:41.227Z,2.57
2023-12-22T18:20:09.630Z,2.60
2023-12-22T18:22:36.924Z,2.60
2023-12-22T18:25:04.339Z,2.30
2023-12-22T18:27:31.631Z,2.60
2023-12-22T18:29:58.898Z,2.40
2023-12-22T18:32:26.312Z,2.63
2023-12-22T18:34:54.055Z,2.27
2023-12-22T18:37:21.490Z,2.50
2023-12-22T18:39:48.754Z,2.47
2023-12-22T18:42:16.021Z,2.40
2023-12-22T18:44:43.276Z,2.43
2023-12-22T18:47:10.611Z,2.40
2023-12-22T18:49:38.160Z,2.40
2023-12-22T18:52:06.572Z,2.40
2023-12-22T18:54:33.889Z,2.40
2023-12-22T18:57:03.369Z,2.40
2023-12-22T18:59:30.674Z,2.50
2023-12-22T19:02:15.114Z,2.30
2023-12-22T19:04:45.971Z,2.20
2023-12-22T19:07:13.373Z,2.53
2023-12-22T19:09:41.205Z,2.37
2023-12-22T19:12:08.598Z,2.47
2023-12-22T19:14:36.332Z,2.60
2023-12-22T19:17:03.660Z,2.40
2023-12-22T19:19:31.254Z,2.50
2023-12-22T19:21:58.510Z,2.30
2023-12-22T19:24:25.921Z,2.50
2023-12-22T19:26:53.212Z,2.40
2023-12-22T19:29:20.493Z,2.40
2023-12-22T19:31:47.836Z,2.30
2023-12-22T19:34:15.071Z,2.20
2023-12-22T19:36:42.830Z,2.63
2023-12-22T19:39:10.052Z,2.47
2023-12-22T19:41:37.433Z,2.50
2023-12-22T19:44:05.104Z,2.33
2023-12-22T19:46:32.438Z,2.30
2023-12-22T19:48:59.767Z,2.50
2023-12-22T19:51:27.066Z,2.43
2023-12-22T19:53:54.341Z,2.30
2023-12-22T19:56:21.628Z,2.40
2023-12-22T19:58:48.971Z,2.60
2023-12-22T20:01:16.298Z,2.53
2023-12-22T20:03:43.735Z,2.67
2023-12-22T20:06:24.682Z,2.23
2023-12-22T20:08:51.929Z,2.30
2023-12-22T20:11:19.584Z,2.40
2023-12-22T20:13:46.951Z,2.30
2023-12-22T20:16:14.472Z,2.30
2023-12-22T20:18:41.932Z,2.30
2023-12-22T20:21:10.216Z,2.30
2023-12-22T20:23:37.451Z,2.60
2023-12-22T20:26:04.890Z,2.20
2023-12-22T20:28:32.280Z,2.40
2023-12-22T20:30:59.604Z,2.47
2023-12-22T20:33:26.910Z,2.70
2023-12-22T20:35:54.221Z,2.20
2023-12-22T20:38:21.571Z,2.40
2023-12-22T20:40:50.160Z,2.40
2023-12-22T20:43:17.520Z,2.37
2023-12-22T20:45:45.817Z,2.43
2023-12-22T20:48:13.124Z,2.33
2023-12-22T20:50:41.033Z,2.53
2023-12-22T20:53:08.420Z,2.53
2023-12-22T20:55:36.603Z,2.40
2023-12-22T20:58:04.249Z,2.50
2023-12-22T21:00:32.778Z,2.20
2023-12-22T21:03:00.123Z,2.30
2023-12-22T21:05:28.358Z,2.40
2023-12-22T21:07:56.074Z,2.23
2023-12-22T21:10:23.321Z,2.40
2023-12-22T21:12:51.442Z,2.60
2023-12-22T21:15:18.748Z,2.40
2023-12-22T21:17:48.060Z,2.30
2023-12-22T21:20:16.539Z,2.27
2023-12-22T21:22:44.691Z,2.40
2023-12-22T21:25:12.127Z,2.30
2023-12-22T21:27:39.451Z,2.40
2023-12-22T21:30:07.252Z,2.20
2023-12-22T21:32:34.808Z,2.30
2023-12-22T21:35:02.107Z,2.30
2023-12-22T21:37:29.346Z,2.70
2023-12-22T21:39:56.618Z,2.40
2023-12-22T21:42:25.299Z,2.20
2023-12-22T21:44:52.643Z,2.40
2023-12-22T21:47:20.028Z,2.20
2023-12-22T21:49:47.806Z,2.40
2023-12-22T21:52:16.317Z,2.47
2023-12-22T21:54:43.577Z,2.43
2023-12-22T21:57:12.616Z,2.40
2023-12-22T21:59:39.869Z,2.30
2023-12-22T22:02:07.781Z,2.63
2023-12-22T22:04:35.108Z,2.43
2023-12-22T22:07:02.626Z,2.50
2023-12-22T22:09:29.853Z,2.30
2023-12-22T22:11:57.132Z,2.23
2023-12-22T22:14:29.533Z,2.30
2023-12-22T22:16:58.058Z,2.40
2023-12-22T22:19:25.499Z,2.50
2023-12-22T22:21:54.024Z,2.57
2023-12-22T22:24:21.506Z,2.43
2023-12-22T22:26:48.756Z,2.57
2023-12-22T22:29:16.506Z,2.60
2023-12-22T22:31:44.073Z,2.50
2023-12-22T22:34:11.546Z,2.93
2023-12-22T22:36:39.087Z,2.50
2023-12-22T22:39:07.383Z,2.70
2023-12-22T22:41:34.778Z,2.60
2023-12-22T22:44:02.178Z,2.60
2023-12-22T22:46:29.472Z,2.50
2023-12-22T22:48:56.753Z,2.60
2023-12-22T22:51:24.597Z,2.50
2023-12-22T22:53:52.483Z,2.40
2023-12-22T22:56:20.137Z,2.60
2023-12-22T22:58:47.434Z,2.50
2023-12-22T23:01:14.746Z,2.30
2023-12-22T23:03:42.155Z,2.30
2023-12-22T23:06:09.603Z,2.57
2023-12-22T23:08:36.867Z,2.60
2023-12-22T23:11:04.235Z,2.40
2023-12-22T23:13:31.877Z,2.60
2023-12-22T23:15:59.144Z,2.97
2023-12-22T23:18:26.481Z,2.50
2023-12-22T23:20:53.733Z,2.50
2023-12-22T23:23:21.123Z,2.30
2023-12-22T23:25:49.803Z,2.53
2023-12-22T23:28:17.355Z,2.30
2023-12-22T23:30:44.609Z,2.40
2023-12-22T23:33:12.031Z,2.47
2023-12-22T23:35:39.374Z,2.83
2023-12-22T23:38:06.782Z,2.80
2023-12-22T23:40:34.190Z,2.50
2023-12-22T23:43:01.689Z,2.57
2023-12-22T23:45:28.929Z,2.40
2023-12-22T23:47:56.347Z,2.60
2023-12-22T23:50:23.993Z,2.40
2023-12-22T23:52:51.308Z,4.40
2023-12-22T23:55:18.601Z,2.60
2023-12-22T23:57:45.989Z,2.30
